createdAt,value
2022-10-09T00:00:41.760Z,95059.16
2022-10-09T00:03:08.432Z,95057.91
2022-10-09T00:05:35.421Z,95052.66
2022-10-09T00:08:02.261Z,95058.44
2022-10-09T00:10:29.522Z,95060.22
2022-10-09T00:12:56.571Z,95049.25
2022-10-09T00:15:23.673Z,95047.38
2022-10-09T00:17:50.397Z,95054.00
2022-10-09T00:20:17.045Z,95052.00
2022-10-09T00:22:43.672Z,95043.56
2022-10-09T00:25:10.478Z,95042.88
2022-10-09T00:27:37.116Z,95043.97
2022-10-09T00:30:04.514Z,95042.47
2022-10-09T00:32:31.166Z,95046.50
2022-10-09T00:34:57.833Z,95046.59
2022-10-09T00:37:24.462Z,95044.50
2022-10-09T00:39:51.108Z,95045.28
2022-10-09T00:42:17.747Z,95035.69
2022-10-09T00:44:58.008Z,95040.75
2022-10-09T00:47:42.922Z,95039.16
2022-10-09T00:50:42.013Z,95043.25
2022-10-09T00:53:12.667Z,95036.03
2022-10-09T00:55:40.201Z,95039.78
2022-10-09T00:58:07.027Z,95036.34
2022-10-09T01:00:33.870Z,95037.22
2022-10-09T01:03:00.691Z,95025.75
2022-10-09T01:05:53.499Z,95032.59
2022-10-09T01:08:29.035Z,95030.94
2022-10-09T01:10:58.735Z,95019.94
2022-10-09T01:13:53.307Z,95016.97
2022-10-09T01:16:26.950Z,95011.13
2022-10-09T01:19:15.228Z,95007.75
2022-10-09T01:21:52.920Z,95000.16
2022-10-09T01:24:28.517Z,95003.63
2022-10-09T01:27:24.427Z,95002.84
2022-10-09T01:30:00.724Z,95000.47
2022-10-09T01:32:33.230Z,94995.59
2022-10-09T01:35:01.648Z,94987.31
2022-10-09T01:37:30.664Z,94991.56
2022-10-09T01:39:58.487Z,94990.28
2022-10-09T01:42:27.511Z,94987.88
2022-10-09T01:44:54.173Z,94980.16
2022-10-09T01:47:21.706Z,94980.16
2022-10-09T01:49:51.434Z,94978.50
2022-10-09T01:52:43.025Z,94977.50
2022-10-09T01:55:31.870Z,94971.25
2022-10-09T01:58:01.427Z,94968.78
2022-10-09T02:00:33.451Z,94966.19
2022-10-09T02:03:02.486Z,94960.19
2022-10-09T02:05:30.893Z,94957.03
2022-10-09T02:07:58.419Z,94961.88
2022-10-09T02:10:26.127Z,94960.19
2022-10-09T02:13:00.726Z,94964.13
2022-10-09T02:15:54.221Z,94952.88
2022-10-09T02:18:31.095Z,94950.78
2022-10-09T02:21:04.761Z,94951.38
2022-10-09T02:23:33.056Z,94950.28
2022-10-09T02:25:59.730Z,94952.47
2022-10-09T02:28:26.578Z,94953.03
2022-10-09T02:31:04.616Z,94950.78
2022-10-09T02:33:32.969Z,94943.28
2022-10-09T02:36:00.149Z,94938.75
2022-10-09T02:38:26.810Z,94942.72
2022-10-09T02:40:57.547Z,94939.84
2022-10-09T02:43:24.246Z,94932.41
2022-10-09T02:45:50.899Z,94933.78
2022-10-09T02:48:17.518Z,94936.59
2022-10-09T02:50:44.167Z,94932.53
2022-10-09T02:53:10.790Z,94931.59
2022-10-09T02:55:37.775Z,94938.72
2022-10-09T02:58:04.467Z,94923.94
2022-10-09T03:00:31.182Z,94930.69
2022-10-09T03:02:57.799Z,94926.56
2022-10-09T03:05:24.469Z,94923.31
2022-10-09T03:07:53.977Z,94926.00
2022-10-09T03:10:20.852Z,94930.44
2022-10-09T03:12:48.267Z,94929.16
2022-10-09T03:15:15.275Z,94937.44
2022-10-09T03:17:41.989Z,94930.53
2022-10-09T03:20:09.275Z,94931.03
2022-10-09T03:22:35.961Z,94924.41
2022-10-09T03:25:02.700Z,94928.16
2022-10-09T03:27:30.885Z,94928.72
2022-10-09T03:29:58.655Z,94924.97
2022-10-09T03:32:25.705Z,94922.53
2022-10-09T03:34:52.435Z,94924.63
2022-10-09T03:37:19.063Z,94925.69
2022-10-09T03:39:46.238Z,94925.47
2022-10-09T03:42:12.979Z,94924.19
2022-10-09T03:44:39.627Z,94926.34
2022-10-09T03:47:06.275Z,94919.00
2022-10-09T03:49:32.988Z,94923.75
2022-10-09T03:51:59.637Z,94923.47
2022-10-09T03:54:26.770Z,94921.09
2022-10-09T03:56:53.408Z,94920.31
2022-10-09T03:59:20.082Z,94927.22
2022-10-09T04:01:46.754Z,94927.72
2022-10-09T04:04:13.382Z,94933.28
2022-10-09T04:06:40.046Z,94933.28
2022-10-09T04:09:06.820Z,94925.56
2022-10-09T04:11:33.570Z,94923.47
2022-10-09T04:14:00.710Z,94931.69
2022-10-09T04:16:27.439Z,94926.94
2022-10-09T04:18:54.132Z,94925.34
2022-10-09T04:21:20.774Z,94926.94
2022-10-09T04:23:47.392Z,94922.19
2022-10-09T04:26:14.096Z,94924.34
2022-10-09T04:28:40.838Z,94924.84
2022-10-09T04:31:07.701Z,94923.25
2022-10-09T04:33:34.657Z,94916.75
2022-10-09T04:36:01.390Z,94921.44
2022-10-09T04:38:28.338Z,94917.94
2022-10-09T04:40:59.926Z,94922.53
2022-10-09T04:43:27.529Z,94918.69
2022-10-09T04:45:54.782Z,94927.16
2022-10-09T04:48:21.662Z,94910.59
2022-10-09T04:50:48.515Z,94915.25
2022-10-09T04:53:15.685Z,94918.94
2022-10-09T04:55:43.430Z,94911.44
2022-10-09T04:58:11.694Z,94917.75
2022-10-09T05:00:43.381Z,94911.16
2022-10-09T05:03:10.447Z,94912.31
2022-10-09T05:05:37.196Z,94911.53
2022-10-09T05:08:03.906Z,94901.66
2022-10-09T05:10:34.199Z,94904.88
2022-10-09T05:13:01.284Z,94907.56
2022-10-09T05:15:27.995Z,94904.38
2022-10-09T05:17:54.627Z,94909.44
2022-10-09T05:20:21.374Z,94908.94
2022-10-09T05:22:48.342Z,94902.22
2022-10-09T05:25:15.451Z,94908.41
2022-10-09T05:27:42.072Z,94910.28
2022-10-09T05:30:09.514Z,94908.50
2022-10-09T05:32:36.652Z,94903.25
2022-10-09T05:35:04.443Z,94904.34
2022-10-09T05:37:31.201Z,94906.78
2022-10-09T05:39:57.932Z,94899.50
2022-10-09T05:42:24.647Z,94898.94
2022-10-09T05:44:51.464Z,94905.25
2022-10-09T05:47:19.717Z,94907.91
2022-10-09T05:49:46.743Z,94898.84
2022-10-09T05:52:13.425Z,94904.09
2022-10-09T05:54:41.882Z,94906.19
2022-10-09T05:57:09.738Z,94902.66
2022-10-09T05:59:36.404Z,94905.53
2022-10-09T06:02:03.778Z,94905.94
2022-10-09T06:04:30.642Z,94892.31
2022-10-09T06:06:57.460Z,94899.34
2022-10-09T06:09:25.584Z,94898.66
2022-10-09T06:11:53.934Z,94893.91
2022-10-09T06:14:22.298Z,94900.53
2022-10-09T06:16:50.131Z,94902.72
2022-10-09T06:19:19.304Z,94903.50
2022-10-09T06:21:47.164Z,94906.97
2022-10-09T06:24:28.688Z,94896.69
2022-10-09T06:26:56.565Z,94911.50
2022-10-09T06:29:23.264Z,94902.34
2022-10-09T06:31:49.864Z,94916.13
2022-10-09T06:34:16.753Z,94907.72
2022-10-09T06:36:43.442Z,94910.09
2022-10-09T06:39:10.848Z,94905.84
2022-10-09T06:41:37.627Z,94902.88
2022-10-09T06:44:22.536Z,94906.34
2022-10-09T06:46:49.711Z,94910.41
2022-10-09T06:49:16.649Z,94910.41
2022-10-09T06:51:43.289Z,94916.13
2022-10-09T06:54:13.332Z,94922.75
2022-10-09T06:56:40.438Z,94918.84
2022-10-09T06:59:08.084Z,94927.28
2022-10-09T07:01:35.327Z,94926.75
2022-10-09T07:04:07.380Z,94928.38
2022-10-09T07:06:38.158Z,94936.97
2022-10-09T07:09:07.363Z,94929.16
2022-10-09T07:11:36.612Z,94932.28
2022-10-09T07:14:05.508Z,94927.91
2022-10-09T07:16:41.030Z,94936.25
2022-10-09T07:19:11.222Z,94930.41
2022-10-09T07:21:40.118Z,94939.19
2022-10-09T07:24:07.583Z,94939.22
2022-10-09T07:26:37.376Z,94935.78
2022-10-09T07:29:05.940Z,94938.47
2022-10-09T07:31:32.677Z,94927.66
2022-10-09T07:33:59.581Z,94928.59
2022-10-09T07:36:26.853Z,94931.09
2022-10-09T07:38:55.843Z,94931.75
2022-10-09T07:41:25.390Z,94927.84
2022-10-09T07:43:52.082Z,94928.19
2022-10-09T07:46:21.479Z,94937.63
2022-10-09T07:48:48.763Z,94930.31
2022-10-09T07:51:16.809Z,94931.28
2022-10-09T07:53:44.855Z,94931.59
2022-10-09T07:56:26.800Z,94929.72
2022-10-09T07:58:56.065Z,94931.09
2022-10-09T08:01:23.930Z,94932.47
2022-10-09T08:03:50.965Z,94923.28
2022-10-09T08:06:18.744Z,94932.78
2022-10-09T08:08:49.315Z,94919.84
2022-10-09T08:11:18.410Z,94922.22
2022-10-09T08:13:46.342Z,94922.88
2022-10-09T08:16:13.759Z,94917.50
2022-10-09T08:18:40.899Z,94919.84
2022-10-09T08:21:18.866Z,94920.63
2022-10-09T08:23:45.868Z,94917.63
2022-10-09T08:26:14.860Z,94919.69
2022-10-09T08:28:41.999Z,94920.78
2022-10-09T08:31:14.252Z,94914.97
2022-10-09T08:33:41.240Z,94918.13
2022-10-09T08:36:10.001Z,94920.47
2022-10-09T08:38:47.151Z,94918.59
2022-10-09T08:41:32.833Z,94915.41
2022-10-09T08:44:13.273Z,94912.81
2022-10-09T08:46:52.820Z,94909.38
2022-10-09T08:49:33.191Z,94913.13
2022-10-09T08:52:11.238Z,94911.38
2022-10-09T08:54:39.682Z,94910.53
2022-10-09T08:57:13.347Z,94905.44
2022-10-09T08:59:40.087Z,94909.25
2022-10-09T09:02:22.181Z,94911.16
2022-10-09T09:04:58.185Z,94903.81
2022-10-09T09:07:28.911Z,94903.72
2022-10-09T09:10:20.309Z,94899.00
2022-10-09T09:13:18.459Z,94899.22
2022-10-09T09:15:58.437Z,94890.88
2022-10-09T09:18:31.178Z,94899.13
2022-10-09T09:21:11.963Z,94885.78
2022-10-09T09:23:46.969Z,94876.56
2022-10-09T09:26:17.455Z,94878.88
2022-10-09T09:28:44.831Z,94876.13
2022-10-09T09:31:22.920Z,94875.50
2022-10-09T09:34:04.477Z,94880.25
2022-10-09T09:36:52.010Z,94872.22
2022-10-09T09:42:19.582Z,94869.06
2022-10-09T09:45:08.258Z,94865.59
2022-10-09T09:47:41.848Z,94863.88
2022-10-09T09:50:23.372Z,94860.31
2022-10-09T09:52:56.684Z,94860.34
2022-10-09T09:55:30.247Z,94864.09
2022-10-09T09:58:09.144Z,94864.31
2022-10-09T10:00:36.145Z,94854.94
2022-10-09T10:03:16.791Z,94855.59
2022-10-09T10:05:45.066Z,94850.97
2022-10-09T10:08:24.264Z,94858.25
2022-10-09T10:10:54.046Z,94841.25
2022-10-09T10:13:43.143Z,94853.31
2022-10-09T10:16:12.347Z,94850.06
2022-10-09T10:18:42.402Z,94835.72
2022-10-09T10:21:18.275Z,94837.03
2022-10-09T10:26:41.535Z,94835.25
2022-10-09T10:29:14.310Z,94836.63
2022-10-09T10:32:02.773Z,94847.41
2022-10-09T10:34:48.691Z,94839.22
2022-10-09T10:37:15.277Z,94848.28
2022-10-09T10:39:49.210Z,94834.72
2022-10-09T10:42:24.143Z,94836.66
2022-10-09T10:45:05.751Z,94838.06
2022-10-09T10:47:40.020Z,94829.78
2022-10-09T10:50:13.670Z,94838.41
2022-10-09T10:53:08.700Z,94832.41
2022-10-09T10:55:50.820Z,94835.59
2022-10-09T10:58:31.228Z,94834.69
2022-10-09T11:01:21.194Z,94834.13
2022-10-09T11:04:21.324Z,94827.19
2022-10-09T11:07:09.043Z,94828.31
2022-10-09T11:09:38.821Z,94828.19
2022-10-09T11:12:24.739Z,94813.69
2022-10-09T11:15:21.325Z,94814.13
2022-10-09T11:17:57.046Z,94805.47
2022-10-09T11:20:57.936Z,94809.97
2022-10-09T11:23:46.045Z,94810.97
2022-10-09T11:26:30.950Z,94802.31
2022-10-09T11:29:02.806Z,94808.06
2022-10-09T11:31:46.548Z,94805.00
2022-10-09T11:34:21.420Z,94804.41
2022-10-09T11:36:48.100Z,94791.97
2022-10-09T11:39:18.829Z,94784.13
2022-10-09T11:41:47.809Z,94785.03
2022-10-09T11:44:29.648Z,94790.00
2022-10-09T11:47:28.138Z,94783.34
2022-10-09T11:50:14.453Z,94774.59
2022-10-09T11:52:50.319Z,94767.28
2022-10-09T11:55:27.390Z,94760.91
2022-10-09T11:57:54.120Z,94752.34
2022-10-09T12:00:33.028Z,94756.47
2022-10-09T12:03:03.387Z,94754.31
2022-10-09T12:05:42.133Z,94750.59
2022-10-09T12:08:19.552Z,94742.13
2022-10-09T12:10:59.987Z,94741.66
2022-10-09T12:13:45.219Z,94734.72
2022-10-09T12:16:31.673Z,94734.19
2022-10-09T12:19:01.790Z,94732.00
2022-10-09T12:21:35.487Z,94733.13
2022-10-09T12:24:02.586Z,94720.91
2022-10-09T12:26:30.188Z,94710.22
2022-10-09T12:29:01.291Z,94711.13
2022-10-09T12:31:32.163Z,94704.34
2022-10-09T12:34:22.874Z,94708.41
2022-10-09T12:36:49.511Z,94702.75
2022-10-09T12:39:21.926Z,94696.34
2022-10-09T12:41:52.314Z,94696.50
2022-10-09T12:44:33.956Z,94702.22
2022-10-09T12:47:15.424Z,94694.16
2022-10-09T12:49:42.076Z,94698.88
2022-10-09T12:52:16.429Z,94688.75
2022-10-09T12:54:44.941Z,94688.56
2022-10-09T12:57:15.798Z,94683.03
2022-10-09T12:59:44.317Z,94690.91
2022-10-09T13:02:13.047Z,94678.66
2022-10-09T13:04:39.886Z,94671.34
2022-10-09T13:07:16.677Z,94668.91
2022-10-09T13:09:43.463Z,94669.59
2022-10-09T13:12:35.583Z,94663.47
2022-10-09T13:15:07.699Z,94658.81
2022-10-09T13:17:35.803Z,94651.28
2022-10-09T13:20:27.212Z,94647.00
2022-10-09T13:22:58.194Z,94645.72
2022-10-09T13:25:32.377Z,94648.28
2022-10-09T13:27:59.132Z,94643.34
2022-10-09T13:30:27.146Z,94650.34
2022-10-09T13:32:54.134Z,94648.00
2022-10-09T13:35:21.211Z,94640.81
2022-10-09T13:37:48.701Z,94638.47
2022-10-09T13:40:19.750Z,94640.59
2022-10-09T13:42:52.439Z,94636.22
2022-10-09T13:45:19.240Z,94630.44
2022-10-09T13:47:45.972Z,94634.50
2022-10-09T13:50:17.809Z,94630.25
2022-10-09T13:52:44.464Z,94628.91
2022-10-09T13:55:11.843Z,94629.38
2022-10-09T13:57:38.593Z,94627.88
2022-10-09T14:00:06.989Z,94616.97
2022-10-09T14:02:38.773Z,94625.44
2022-10-09T14:05:05.939Z,94618.25
2022-10-09T14:07:32.630Z,94613.75
2022-10-09T14:09:59.266Z,94614.09
2022-10-09T14:12:26.121Z,94608.38
2022-10-09T14:14:54.249Z,94612.53
2022-10-09T14:17:20.895Z,94602.91
2022-10-09T14:19:48.273Z,94606.03
2022-10-09T14:22:15.622Z,94597.63
2022-10-09T14:24:42.679Z,94601.84
2022-10-09T14:27:09.402Z,94601.97
2022-10-09T14:29:37.490Z,94596.81
2022-10-09T14:32:05.063Z,94597.50
2022-10-09T14:34:31.751Z,94595.59
2022-10-09T14:36:58.538Z,94596.72
2022-10-09T14:39:25.219Z,94598.50
2022-10-09T14:41:52.025Z,94592.13
2022-10-09T14:44:18.666Z,94593.00
2022-10-09T14:46:45.271Z,94583.03
2022-10-09T14:49:12.307Z,94585.03
2022-10-09T14:51:40.303Z,94586.50
2022-10-09T14:54:08.173Z,94583.16
2022-10-09T14:56:35.678Z,94576.75
2022-10-09T14:59:02.634Z,94580.56
2022-10-09T15:01:29.643Z,94574.84
2022-10-09T15:03:56.849Z,94573.50
2022-10-09T15:06:27.745Z,94564.97
2022-10-09T15:09:03.089Z,94564.19
2022-10-09T15:11:33.177Z,94567.97
2022-10-09T15:13:59.853Z,94558.34
2022-10-09T15:16:26.632Z,94558.47
2022-10-09T15:18:54.860Z,94554.75
2022-10-09T15:21:24.552Z,94552.06
2022-10-09T15:23:54.905Z,94551.72
2022-10-09T15:26:21.816Z,94551.13
2022-10-09T15:28:48.596Z,94549.78
2022-10-09T15:31:31.920Z,94546.41
2022-10-09T15:34:01.128Z,94546.31
2022-10-09T15:36:28.867Z,94537.69
2022-10-09T15:38:55.647Z,94542.94
2022-10-09T15:41:27.980Z,94543.94
2022-10-09T15:43:57.166Z,94544.06
2022-10-09T15:46:24.238Z,94540.66
2022-10-09T15:48:51.464Z,94536.34
2022-10-09T15:51:18.866Z,94532.63
2022-10-09T15:53:49.075Z,94532.81
2022-10-09T15:56:22.376Z,94524.69
2022-10-09T15:58:50.050Z,94520.41
2022-10-09T16:01:17.551Z,94516.75
2022-10-09T16:03:44.927Z,94510.13
2022-10-09T16:06:15.017Z,94517.59
2022-10-09T16:08:42.376Z,94520.13
2022-10-09T16:11:11.979Z,94515.09
2022-10-09T16:13:41.582Z,94515.53
2022-10-09T16:16:11.626Z,94514.75
2022-10-09T16:18:38.303Z,94512.72
2022-10-09T16:21:10.360Z,94508.47
2022-10-09T16:23:37.163Z,94516.91
2022-10-09T16:26:04.604Z,94507.72
2022-10-09T16:28:32.415Z,94513.72
2022-10-09T16:30:59.364Z,94509.81
2022-10-09T16:33:26.134Z,94508.78
2022-10-09T16:35:52.811Z,94513.88
2022-10-09T16:38:19.790Z,94511.06
2022-10-09T16:41:01.290Z,94503.78
2022-10-09T16:43:28.334Z,94503.50
2022-10-09T16:45:55.010Z,94509.47
2022-10-09T16:48:21.656Z,94506.00
2022-10-09T16:50:48.267Z,94510.59
2022-10-09T16:53:14.926Z,94516.28
2022-10-09T16:55:41.565Z,94513.78
2022-10-09T16:58:08.236Z,94512.13
2022-10-09T17:00:34.927Z,94512.13
2022-10-09T17:03:01.563Z,94516.69
2022-10-09T17:05:28.221Z,94506.16
2022-10-09T17:07:54.866Z,94507.13
2022-10-09T17:10:21.608Z,94514.25
2022-10-09T17:12:48.268Z,94508.56
2022-10-09T17:15:14.955Z,94508.09
2022-10-09T17:17:41.659Z,94509.66
2022-10-09T17:20:08.795Z,94510.78
2022-10-09T17:22:35.423Z,94519.28
2022-10-09T17:25:02.376Z,94519.28
2022-10-09T17:27:29.036Z,94515.69
2022-10-09T17:29:55.747Z,94512.53
2022-10-09T17:32:22.773Z,94508.31
2022-10-09T17:34:50.896Z,94502.16
2022-10-09T17:37:17.571Z,94502.31
2022-10-09T17:39:47.456Z,94497.47
2022-10-09T17:42:16.532Z,94507.28
2022-10-09T17:44:43.153Z,94510.59
2022-10-09T17:47:09.868Z,94510.47
2022-10-09T17:49:36.559Z,94506.22
2022-10-09T17:52:03.651Z,94509.38
2022-10-09T17:54:30.296Z,94504.66
2022-10-09T17:57:00.191Z,94501.38
2022-10-09T17:59:27.270Z,94502.66
2022-10-09T18:01:53.906Z,94494.91
2022-10-09T18:04:20.640Z,94499.03
2022-10-09T18:06:47.306Z,94496.53
2022-10-09T18:09:14.111Z,94490.06
2022-10-09T18:11:40.888Z,94485.34
2022-10-09T18:14:07.618Z,94483.13
2022-10-09T18:16:37.821Z,94481.72
2022-10-09T18:19:09.650Z,94484.41
2022-10-09T18:21:36.554Z,94479.69
2022-10-09T18:24:03.354Z,94479.84
2022-10-09T18:26:30.029Z,94480.19
2022-10-09T18:28:58.679Z,94471.22
2022-10-09T18:31:25.550Z,94476.25
2022-10-09T18:33:52.746Z,94473.13
2022-10-09T18:36:23.183Z,94480.06
2022-10-09T18:38:54.822Z,94471.72
2022-10-09T18:41:22.947Z,94469.69
2022-10-09T18:43:50.835Z,94474.09
2022-10-09T18:46:24.156Z,94477.22
2022-10-09T18:48:52.139Z,94463.69
2022-10-09T18:51:21.602Z,94472.81
2022-10-09T18:53:52.144Z,94467.31
2022-10-09T18:56:20.759Z,94462.91
2022-10-09T18:58:49.707Z,94461.66
2022-10-09T19:01:16.443Z,94457.28
2022-10-09T19:03:46.028Z,94453.66
2022-10-09T19:06:16.038Z,94449.75
2022-10-09T19:08:43.666Z,94451.94
2022-10-09T19:11:10.407Z,94452.41
2022-10-09T19:13:37.058Z,94444.22
2022-10-09T19:16:05.675Z,94444.41
2022-10-09T19:18:35.030Z,94441.91
2022-10-09T19:21:02.929Z,94446.13
2022-10-09T19:23:29.910Z,94449.16
2022-10-09T19:25:58.348Z,94444.13
2022-10-09T19:28:27.910Z,94449.00
2022-10-09T19:30:54.605Z,94446.97
2022-10-09T19:33:21.494Z,94446.19
2022-10-09T19:35:53.906Z,94455.47
2022-10-09T19:38:21.403Z,94449.00
2022-10-09T19:40:49.229Z,94452.16
2022-10-09T19:43:17.517Z,94450.06
2022-10-09T19:45:44.734Z,94445.97
2022-10-09T19:48:11.423Z,94442.66
2022-10-09T19:50:43.090Z,94447.53
2022-10-09T19:53:11.763Z,94447.88
2022-10-09T19:55:38.791Z,94447.72
2022-10-09T19:58:06.714Z,94436.09
2022-10-09T20:00:33.477Z,94446.81
2022-10-09T20:03:00.183Z,94439.56
2022-10-09T20:05:26.932Z,94441.44
2022-10-09T20:07:53.562Z,94439.25
2022-10-09T20:10:20.195Z,94439.88
2022-10-09T20:12:47.067Z,94426.34
2022-10-09T20:15:14.433Z,94440.50
2022-10-09T20:17:41.259Z,94430.91
2022-10-09T20:20:09.405Z,94438.94
2022-10-09T20:22:37.793Z,94434.22
2022-10-09T20:25:05.426Z,94427.91
2022-10-09T20:27:32.747Z,94428.28
2022-10-09T20:29:59.518Z,94432.53
2022-10-09T20:32:26.522Z,94425.13
2022-10-09T20:34:53.930Z,94423.56
2022-10-09T20:37:21.135Z,94428.13
2022-10-09T20:39:49.127Z,94431.44
2022-10-09T20:42:16.039Z,94435.38
2022-10-09T20:44:44.343Z,94422.13
2022-10-09T20:47:11.077Z,94423.56
2022-10-09T20:49:37.918Z,94427.34
2022-10-09T20:52:06.213Z,94430.03
2022-10-09T20:54:34.708Z,94417.63
2022-10-09T20:57:01.660Z,94419.34
2022-10-09T20:59:28.311Z,94422.03
2022-10-09T21:01:54.992Z,94424.69
2022-10-09T21:04:21.706Z,94411.94
2022-10-09T21:06:48.437Z,94409.44
2022-10-09T21:09:15.198Z,94411.00
2022-10-09T21:11:43.839Z,94394.16
2022-10-09T21:14:10.866Z,94419.34
2022-10-09T21:16:38.416Z,94409.13
2022-10-09T21:19:07.777Z,94409.00
2022-10-09T21:21:34.628Z,94409.63
2022-10-09T21:24:01.723Z,94420.13
2022-10-09T21:26:30.486Z,94419.53
2022-10-09T21:29:00.017Z,94418.13
2022-10-09T21:31:28.859Z,94426.16
2022-10-09T21:33:56.397Z,94436.50
2022-10-09T21:36:37.417Z,94430.22
2022-10-09T21:39:06.394Z,94430.69
2022-10-09T21:41:34.269Z,94418.88
2022-10-09T21:44:01.638Z,94424.06
2022-10-09T21:46:28.642Z,94425.66
2022-10-09T21:48:55.845Z,94418.25
2022-10-09T21:51:23.057Z,94421.88
2022-10-09T21:53:50.916Z,94422.19
2022-10-09T21:56:18.475Z,94415.56
2022-10-09T21:58:49.074Z,94406.13
2022-10-09T22:01:16.584Z,94410.69
2022-10-09T22:03:43.911Z,94414.47
2022-10-09T22:06:17.787Z,94410.53
2022-10-09T22:08:45.952Z,94409.00
2022-10-09T22:11:12.915Z,94404.59
2022-10-09T22:13:39.765Z,94399.53
2022-10-09T22:16:11.946Z,94405.06
2022-10-09T22:18:38.491Z,94397.19
2022-10-09T22:21:11.854Z,94403.78
2022-10-09T22:23:38.959Z,94397.97
2022-10-09T22:26:13.808Z,94409.28
2022-10-09T22:28:40.855Z,94401.44
2022-10-09T22:31:20.434Z,94411.50
2022-10-09T22:34:05.317Z,94402.06
2022-10-09T22:36:34.131Z,94401.44
2022-10-09T22:39:04.583Z,94400.97
2022-10-09T22:41:31.861Z,94390.41
2022-10-09T22:44:00.774Z,94392.31
2022-10-09T22:46:35.528Z,94402.38
2022-10-09T22:49:04.977Z,94398.91
2022-10-09T22:51:31.741Z,94396.41
2022-10-09T22:53:59.713Z,94398.59
2022-10-09T22:56:38.397Z,94400.97
2022-10-09T22:59:06.507Z,94392.16
2022-10-09T23:01:55.129Z,94399.38
2022-10-09T23:04:23.161Z,94398.75
2022-10-09T23:06:55.197Z,94399.38
2022-10-09T23:09:23.578Z,94386.00
2022-10-09T23:11:50.523Z,94385.38
2022-10-09T23:14:17.951Z,94380.50
2022-10-09T23:16:44.687Z,94385.22
2022-10-09T23:19:11.398Z,94391.97
2022-10-09T23:21:40.247Z,94385.66
2022-10-09T23:24:08.163Z,94390.38
2022-10-09T23:26:36.995Z,94391.31
2022-10-09T23:29:09.233Z,94385.34
2022-10-09T23:31:37.157Z,94398.41
2022-10-09T23:34:05.781Z,94385.34
2022-10-09T23:36:32.571Z,94396.63
2022-10-09T23:39:01.031Z,94389.25
2022-10-09T23:41:29.222Z,94387.03
2022-10-09T23:43:56.156Z,94395.38
2022-10-09T23:46:25.368Z,94386.72
2022-10-09T23:48:52.784Z,94392.69
2022-10-09T23:51:20.926Z,94389.69
2022-10-09T23:53:48.052Z,94386.38
2022-10-09T23:56:16.193Z,94389.47
2022-10-09T23:58:42.846Z,94379.72
